Time;durP1;ratioP1;P1;durP2;ratioP2;P2;SDS_P1;SDS_P2;PMS_P1;PMS_P2;Temp;Humidity;BMP_temperature;BMP_pressure;BME280_temperature;BME280_humidity;BME280_pressure;Samples;Min_cycle;Max_cycle;Signal;HPM_P1;HPM_P2
2024/01/29 00:01:10;;;;;;;21.50;9.98;;;9.40;99.90;;;;;;6301465;28;20484;-87
2024/01/29 00:04:12;;;;;;;25.45;10.98;;;9.30;99.90;;;;;;6277032;28;20048;-88
2024/01/29 00:07:14;;;;;;;24.00;10.95;;;9.30;99.90;;;;;;6275573;28;20809;-88
2024/01/29 00:10:15;;;;;;;20.95;10.57;;;9.30;99.90;;;;;;6300866;28;20480;-87
2024/01/29 00:13:17;;;;;;;22.45;10.23;;;9.40;99.90;;;;;;6263830;28;20055;-88
2024/01/29 00:16:18;;;;;;;24.40;10.55;;;9.40;99.90;;;;;;6285981;28;20044;-89
2024/01/29 00:19:20;;;;;;;25.02;9.52;;;9.50;99.90;;;;;;6297459;28;20048;-86
2024/01/29 00:22:22;;;;;;;21.98;10.43;;;9.50;99.90;;;;;;6299332;28;20123;-88
2024/01/29 00:25:23;;;;;;;25.00;10.50;;;9.60;99.90;;;;;;6273955;28;20053;-87
2024/01/29 00:28:25;;;;;;;21.55;10.18;;;9.60;99.90;;;;;;6299367;28;20048;-89
2024/01/29 00:31:27;;;;;;;22.90;9.70;;;9.60;99.90;;;;;;6277042;28;20048;-90
2024/01/29 00:34:29;;;;;;;22.20;8.70;;;9.70;99.90;;;;;;6283319;28;20044;-88
2024/01/29 00:37:31;;;;;;;17.48;8.80;;;9.70;99.90;;;;;;6276074;28;20049;-88
2024/01/29 00:40:33;;;;;;;21.58;9.68;;;9.70;99.90;;;;;;6300595;28;20048;-88
2024/01/29 00:43:34;;;;;;;20.42;8.57;;;9.70;99.90;;;;;;6267621;28;20040;-89
2024/01/29 00:46:36;;;;;;;17.88;8.68;;;9.70;99.90;;;;;;6276888;28;20515;-89
2024/01/29 00:49:38;;;;;;;18.33;8.80;;;9.70;99.90;;;;;;6282446;28;20091;-88
2024/01/29 00:52:40;;;;;;;14.73;8.30;;;9.70;99.90;;;;;;6300934;28;20036;-89
2024/01/29 00:55:43;;;;;;;18.08;9.10;;;9.70;99.90;;;;;;6268053;28;20074;-88
2024/01/29 00:58:46;;;;;;;19.58;9.02;;;9.70;99.90;;;;;;6272215;28;20068;-88
2024/01/29 01:01:47;;;;;;;18.23;8.77;;;9.60;99.90;;;;;;6297067;28;20044;-87
2024/01/29 01:04:49;;;;;;;16.20;9.10;;;9.60;99.90;;;;;;6273299;28;20115;-89
2024/01/29 01:07:51;;;;;;;20.17;9.18;;;9.50;99.90;;;;;;6294197;28;20063;-88
2024/01/29 01:10:52;;;;;;;20.90;9.05;;;9.50;99.90;;;;;;6299584;28;20054;-89
2024/01/29 01:13:54;;;;;;;20.52;9.25;;;9.50;99.90;;;;;;6285010;28;20044;-90
2024/01/29 01:16:56;;;;;;;19.30;10.07;;;9.50;99.90;;;;;;6277510;28;20037;-91
2024/01/29 01:19:58;;;;;;;22.02;9.45;;;9.70;99.90;;;;;;6301044;28;20052;-90
2024/01/29 01:23:01;;;;;;;20.50;10.10;;;9.80;99.90;;;;;;6277127;28;20160;-89
2024/01/29 01:26:03;;;;;;;16.05;9.48;;;9.90;99.90;;;;;;6300838;28;20055;-91
2024/01/29 01:29:04;;;;;;;17.90;9.50;;;9.90;99.90;;;;;;6284353;28;20045;-90
2024/01/29 01:32:06;;;;;;;19.98;9.82;;;10.00;99.90;;;;;;6299629;28;20051;-87
2024/01/29 01:35:07;;;;;;;18.90;8.90;;;10.10;99.90;;;;;;6275258;28;20041;-87
2024/01/29 01:38:09;;;;;;;17.48;9.07;;;10.00;99.90;;;;;;6299728;28;20059;-89
2024/01/29 01:41:11;;;;;;;17.05;8.85;;;10.10;99.90;;;;;;6275589;28;20538;-89
2024/01/29 01:44:12;;;;;;;17.73;9.07;;;10.00;99.90;;;;;;6279196;28;20392;-88
2024/01/29 01:47:14;;;;;;;21.73;9.02;;;10.10;99.90;;;;;;6275250;28;20045;-87
2024/01/29 01:50:16;;;;;;;21.55;10.15;;;10.10;99.90;;;;;;6300519;28;20560;-89
2024/01/29 01:53:17;;;;;;;22.10;9.82;;;10.30;99.90;;;;;;6278810;28;20045;-88
2024/01/29 01:56:19;;;;;;;19.00;9.88;;;10.30;99.90;;;;;;6269323;28;20059;-89
2024/01/29 01:59:20;;;;;;;20.33;9.80;;;10.30;99.90;;;;;;6267841;28;20045;-89
2024/01/29 02:02:22;;;;;;;20.48;10.00;;;10.40;99.90;;;;;;6302786;28;20048;-91
2024/01/29 02:05:24;;;;;;;25.13;11.15;;;10.50;99.90;;;;;;6281322;28;20045;-91
2024/01/29 02:08:25;;;;;;;21.60;10.43;;;10.50;99.90;;;;;;6305936;28;20059;-90
2024/01/29 02:11:27;;;;;;;22.10;10.30;;;10.50;99.90;;;;;;6280111;28;20048;-89
2024/01/29 02:14:29;;;;;;;26.23;10.88;;;10.50;99.90;;;;;;6302042;28;20040;-90
2024/01/29 02:17:30;;;;;;;23.98;11.00;;;10.60;99.90;;;;;;6280660;28;20036;-91
2024/01/29 02:20:32;;;;;;;20.50;10.27;;;10.50;99.90;;;;;;6281272;28;20079;-90
2024/01/29 02:23:34;;;;;;;21.42;10.75;;;10.50;99.90;;;;;;6287299;28;20066;-90
2024/01/29 02:26:35;;;;;;;27.20;11.10;;;10.50;99.90;;;;;;6282573;28;20052;-92
2024/01/29 02:29:37;;;;;;;20.25;10.13;;;10.50;99.90;;;;;;6294162;28;20050;-90
2024/01/29 02:32:39;;;;;;;22.13;11.15;;;10.50;99.90;;;;;;6278488;28;20049;-89
2024/01/29 02:35:41;;;;;;;21.15;11.38;;;10.50;99.90;;;;;;6284531;28;20523;-90
2024/01/29 02:38:43;;;;;;;22.05;11.38;;;10.50;99.90;;;;;;6305790;28;20048;-90
2024/01/29 02:41:44;;;;;;;25.65;12.30;;;10.50;99.90;;;;;;6281148;28;20041;-91
2024/01/29 02:44:46;;;;;;;20.80;10.73;;;10.50;99.90;;;;;;6275780;28;20048;-91
2024/01/29 02:47:48;;;;;;;22.95;12.25;;;10.40;99.90;;;;;;6318221;28;20127;-91
2024/01/29 02:50:49;;;;;;;23.08;12.57;;;10.40;99.90;;;;;;6291513;28;20040;-90
2024/01/29 02:53:51;;;;;;;22.73;12.95;;;10.30;99.90;;;;;;6305381;28;20048;-89
2024/01/29 02:56:53;;;;;;;28.40;13.23;;;10.20;99.90;;;;;;6303552;28;20084;-89
2024/01/29 02:59:54;;;;;;;26.27;12.45;;;10.20;99.90;;;;;;6318460;28;20040;-89
2024/01/29 03:02:57;;;;;;;25.10;12.65;;;10.20;99.90;;;;;;6312483;28;20067;-88
2024/01/29 03:05:58;;;;;;;23.55;12.80;;;10.20;99.90;;;;;;6303387;28;20044;-89
2024/01/29 03:09:00;;;;;;;25.60;12.95;;;10.20;99.90;;;;;;6313773;28;20033;-88
2024/01/29 03:12:02;;;;;;;29.50;13.10;;;10.20;99.90;;;;;;6324043;28;20036;-89
2024/01/29 03:15:03;;;;;;;32.92;14.23;;;10.20;99.90;;;;;;6299430;28;20048;-89
2024/01/29 03:18:06;;;;;;;30.73;13.65;;;10.10;99.90;;;;;;6298533;28;20044;-90
2024/01/29 03:21:08;;;;;;;31.75;14.55;;;10.20;99.90;;;;;;6283680;28;20088;-90
2024/01/29 03:24:10;;;;;;;28.73;14.30;;;10.10;99.90;;;;;;6288193;28;20044;-89
2024/01/29 03:27:12;;;;;;;34.10;14.70;;;10.10;99.90;;;;;;6282275;28;20045;-91
2024/01/29 03:30:13;;;;;;;33.33;14.55;;;10.10;99.90;;;;;;6294066;28;20055;-91
2024/01/29 03:33:15;;;;;;;35.05;15.13;;;10.20;99.90;;;;;;6305712;28;20051;-89
2024/01/29 03:36:17;;;;;;;36.45;14.63;;;10.10;99.90;;;;;;6285506;28;20041;-89
2024/01/29 03:39:18;;;;;;;31.60;14.02;;;10.10;99.90;;;;;;6308857;28;20048;-90
2024/01/29 03:42:20;;;;;;;32.53;14.77;;;10.10;99.90;;;;;;6281110;28;20051;-89
2024/01/29 03:45:22;;;;;;;31.45;14.68;;;10.10;99.90;;;;;;6272063;28;20045;-89
2024/01/29 03:48:23;;;;;;;34.05;14.25;;;10.10;99.90;;;;;;6302363;28;20055;-87
2024/01/29 03:51:25;;;;;;;30.52;14.63;;;10.20;99.90;;;;;;6277251;28;20045;-88
2024/01/29 03:54:27;;;;;;;37.60;15.27;;;10.20;99.90;;;;;;6300547;28;20126;-88
2024/01/29 03:57:28;;;;;;;30.42;14.07;;;10.20;99.90;;;;;;6301104;28;20498;-89
2024/01/29 04:00:31;;;;;;;29.60;14.60;;;10.20;99.90;;;;;;6256931;28;20545;-88
2024/01/29 04:03:32;;;;;;;29.15;14.88;;;10.20;99.90;;;;;;6301939;28;20114;-90
2024/01/29 04:06:35;;;;;;;37.22;15.32;;;10.20;99.90;;;;;;6277088;28;20048;-89
2024/01/29 04:09:36;;;;;;;38.38;14.73;;;10.20;99.90;;;;;;6283562;28;20048;-89
2024/01/29 04:12:38;;;;;;;35.92;15.93;;;10.20;99.90;;;;;;6279194;28;20130;-88
2024/01/29 04:15:40;;;;;;;33.95;14.65;;;10.20;99.90;;;;;;6288692;28;20140;-89
2024/01/29 04:18:41;;;;;;;41.05;14.77;;;10.20;99.90;;;;;;6265954;28;20052;-88
2024/01/29 04:21:43;;;;;;;31.08;14.80;;;10.30;99.90;;;;;;6276577;28;20068;-89
2024/01/29 04:24:45;;;;;;;35.45;14.80;;;10.20;99.90;;;;;;6297919;28;20044;-89
2024/01/29 04:27:47;;;;;;;31.13;14.40;;;10.20;99.90;;;;;;6296378;28;20044;-89
2024/01/29 04:30:48;;;;;;;33.75;14.80;;;10.30;99.90;;;;;;6275512;28;20476;-88
2024/01/29 04:33:50;;;;;;;33.50;15.95;;;10.20;99.90;;;;;;6301947;28;20468;-89
2024/01/29 04:36:52;;;;;;;38.00;15.43;;;10.30;99.90;;;;;;6281222;28;20171;-90
2024/01/29 04:39:54;;;;;;;37.25;15.48;;;10.30;99.90;;;;;;6285299;28;20071;-89
2024/01/29 04:46:09;;;;;;;34.33;15.70;;;10.20;99.90;;;;;;6292589;28;20545;-82
2024/01/29 04:49:10;;;;;;;36.97;15.65;;;10.30;99.90;;;;;;6295788;28;20535;-82
2024/01/29 04:52:14;;;;;;;35.72;15.52;;;10.30;99.90;;;;;;6294980;28;20054;-81
2024/01/29 04:55:16;;;;;;;36.03;16.15;;;10.30;99.90;;;;;;6294457;28;20055;-82
2024/01/29 04:58:18;;;;;;;35.60;16.38;;;10.30;99.90;;;;;;6291491;28;20052;-82
2024/01/29 05:01:19;;;;;;;38.47;15.75;;;10.30;99.90;;;;;;6294235;28;20044;-82
2024/01/29 05:04:21;;;;;;;42.67;16.17;;;10.40;99.90;;;;;;6293949;28;20045;-83
2024/01/29 05:07:23;;;;;;;38.72;16.42;;;10.30;99.90;;;;;;6293516;28;20044;-83
2024/01/29 05:10:24;;;;;;;35.92;16.40;;;10.30;99.90;;;;;;6295326;28;20060;-83
2024/01/29 05:13:26;;;;;;;37.38;16.95;;;10.40;99.90;;;;;;6292361;28;20051;-83
2024/01/29 05:16:29;;;;;;;37.58;15.35;;;10.40;99.90;;;;;;6293854;28;20056;-83
2024/01/29 05:19:30;;;;;;;34.97;16.08;;;10.40;99.90;;;;;;6293530;28;20404;-83
2024/01/29 05:22:32;;;;;;;37.25;15.15;;;10.40;99.90;;;;;;6293469;28;20055;-82
2024/01/29 05:25:34;;;;;;;36.88;16.27;;;10.40;99.90;;;;;;6296618;28;20057;-82
2024/01/29 05:28:36;;;;;;;44.50;17.08;;;10.40;99.90;;;;;;6296866;28;20048;-82
2024/01/29 05:31:37;;;;;;;37.15;15.38;;;10.40;99.90;;;;;;6298571;28;20053;-82
2024/01/29 05:34:39;;;;;;;34.65;15.73;;;10.40;99.90;;;;;;6298000;28;20056;-82
2024/01/29 05:37:41;;;;;;;37.60;16.17;;;10.40;99.90;;;;;;6299351;28;20048;-81
2024/01/29 05:40:42;;;;;;;36.33;16.13;;;10.40;99.90;;;;;;6298359;28;20052;-82
2024/01/29 05:43:44;;;;;;;37.70;17.30;;;10.40;99.90;;;;;;6296022;28;20051;-82
2024/01/29 05:46:45;;;;;;;46.25;17.50;;;10.40;99.90;;;;;;6298162;28;20052;-82
2024/01/29 05:49:47;;;;;;;43.65;17.85;;;10.40;99.90;;;;;;6297449;28;20067;-82
2024/01/29 05:52:49;;;;;;;41.83;18.58;;;10.40;99.90;;;;;;6298261;28;20420;-81
2024/01/29 05:55:50;;;;;;;43.08;17.05;;;10.40;99.90;;;;;;6297956;28;20060;-82
2024/01/29 05:58:52;;;;;;;41.92;17.80;;;10.40;99.90;;;;;;6296284;28;20044;-82
2024/01/29 06:01:53;;;;;;;37.60;17.17;;;10.40;99.90;;;;;;6297887;28;20045;-82
2024/01/29 06:04:55;;;;;;;42.88;18.30;;;10.40;99.90;;;;;;6297855;28;20048;-82
2024/01/29 06:07:58;;;;;;;47.92;19.13;;;10.40;99.90;;;;;;6297631;28;20060;-82
2024/01/29 06:11:00;;;;;;;41.65;18.85;;;10.40;99.90;;;;;;6297460;28;20118;-81
2024/01/29 06:14:01;;;;;;;42.80;19.65;;;10.40;99.90;;;;;;6295195;28;20403;-80
2024/01/29 06:17:03;;;;;;;39.72;17.67;;;10.40;99.90;;;;;;6296995;28;20044;-81
2024/01/29 06:20:05;;;;;;;50.00;20.73;;;10.40;99.90;;;;;;6296851;28;20095;-80
2024/01/29 06:23:19;;;;;;;52.97;19.73;;;10.40;99.90;;;;;;6297522;28;20048;-81
2024/01/29 06:26:20;;;;;;;45.35;18.63;;;10.40;99.90;;;;;;6294885;28;20055;-83
2024/01/29 06:29:22;;;;;;;40.53;19.08;;;10.50;99.90;;;;;;6298421;28;20060;-86
2024/01/29 06:32:23;;;;;;;47.75;20.10;;;10.40;99.90;;;;;;6298024;28;20052;-81
2024/01/29 06:35:25;;;;;;;41.05;18.95;;;10.40;99.90;;;;;;6296750;28;20086;-84
2024/01/29 06:38:27;;;;;;;45.08;19.20;;;10.40;99.90;;;;;;6296355;28;20045;-83
2024/01/29 06:41:28;;;;;;;41.28;19.45;;;10.40;99.90;;;;;;6296372;28;20429;-82
2024/01/29 06:44:30;;;;;;;47.28;19.35;;;10.40;99.90;;;;;;6295038;28;20055;-82
2024/01/29 06:47:32;;;;;;;48.80;18.83;;;10.40;99.90;;;;;;6296810;28;20048;-82
2024/01/29 06:50:33;;;;;;;42.97;18.67;;;10.40;99.90;;;;;;6298090;28;20056;-81
2024/01/29 06:53:35;;;;;;;44.53;19.15;;;10.30;99.90;;;;;;6298170;28;20055;-80
2024/01/29 06:56:37;;;;;;;46.67;19.33;;;10.40;99.90;;;;;;6296931;28;20044;-81
2024/01/29 06:59:38;;;;;;;44.47;19.73;;;10.30;99.90;;;;;;6295364;28;20453;-81
2024/01/29 07:02:40;;;;;;;46.92;18.75;;;10.30;99.90;;;;;;6296365;28;20053;-82
2024/01/29 07:05:42;;;;;;;43.70;19.30;;;10.30;99.90;;;;;;6297280;28;20476;-80
2024/01/29 07:08:43;;;;;;;47.35;20.67;;;10.20;99.90;;;;;;6297558;28;20049;-81
2024/01/29 07:11:45;;;;;;;43.30;19.98;;;10.20;99.90;;;;;;6296089;28;20055;-82
2024/01/29 07:14:47;;;;;;;44.20;19.92;;;10.20;99.90;;;;;;6294710;28;20048;-82
2024/01/29 07:17:48;;;;;;;44.08;18.80;;;10.20;99.90;;;;;;6297681;28;20048;-82
2024/01/29 07:20:50;;;;;;;38.65;18.58;;;10.20;99.90;;;;;;6297539;28;20566;-79
2024/01/29 07:23:52;;;;;;;38.42;19.27;;;10.30;99.90;;;;;;6296278;28;20155;-80
2024/01/29 07:26:54;;;;;;;38.13;18.25;;;10.20;99.90;;;;;;6295550;28;20480;-81
2024/01/29 07:29:55;;;;;;;40.80;19.00;;;10.30;99.90;;;;;;6294041;28;20515;-81
2024/01/29 07:32:57;;;;;;;42.38;19.73;;;10.30;99.90;;;;;;6297087;28;20071;-80
2024/01/29 07:35:59;;;;;;;39.78;18.02;;;10.20;99.90;;;;;;6295433;28;20056;-81
2024/01/29 07:39:00;;;;;;;38.72;19.05;;;10.20;99.90;;;;;;6297417;28;20040;-81
2024/01/29 07:42:02;;;;;;;40.15;18.90;;;10.20;99.90;;;;;;6294320;28;20048;-80
2024/01/29 07:45:04;;;;;;;38.78;18.30;;;10.30;99.90;;;;;;6292381;28;20159;-81
2024/01/29 07:48:06;;;;;;;39.97;18.30;;;10.30;99.90;;;;;;6296550;28;20411;-80
2024/01/29 07:51:07;;;;;;;38.88;18.83;;;10.30;99.90;;;;;;6297229;28;20052;-80
2024/01/29 07:54:09;;;;;;;42.15;18.67;;;10.30;99.90;;;;;;6296367;28;20045;-80
2024/01/29 07:57:10;;;;;;;41.28;18.25;;;10.30;99.90;;;;;;6272070;28;20049;-79
2024/01/29 08:00:12;;;;;;;36.83;17.85;;;10.30;99.90;;;;;;6291242;28;20052;-80
2024/01/29 08:03:14;;;;;;;34.83;16.92;;;10.30;99.90;;;;;;6294994;28;20055;-81
2024/01/29 08:06:16;;;;;;;36.28;16.98;;;10.30;99.90;;;;;;6296063;28;20486;-82
2024/01/29 08:09:18;;;;;;;35.40;17.33;;;10.40;99.90;;;;;;6294652;28;20075;-81
2024/01/29 08:12:20;;;;;;;36.13;16.27;;;10.40;99.90;;;;;;6295261;28;20044;-81
2024/01/29 08:15:22;;;;;;;35.30;16.40;;;10.40;99.90;;;;;;6294793;28;20063;-81
2024/01/29 08:18:24;;;;;;;32.67;15.60;;;10.40;99.90;;;;;;6295575;28;20128;-81
2024/01/29 08:21:26;;;;;;;33.67;15.32;;;10.50;99.90;;;;;;6295687;28;20045;-81
2024/01/29 08:24:27;;;;;;;36.55;15.93;;;10.50;99.90;;;;;;6293336;28;20052;-84
2024/01/29 08:27:31;;;;;;;33.63;15.48;;;10.50;99.90;;;;;;6294269;28;20478;-82
2024/01/29 08:30:33;;;;;;;31.23;15.15;;;10.50;99.90;;;;;;6293977;28;20129;-84
2024/01/29 08:33:34;;;;;;;33.08;14.88;;;10.60;99.90;;;;;;6295987;28;20060;-83
2024/01/29 08:36:36;;;;;;;32.72;14.70;;;10.60;99.90;;;;;;6296136;28;20071;-83
2024/01/29 08:39:38;;;;;;;30.45;14.93;;;10.70;99.90;;;;;;6299418;28;20617;-83
2024/01/29 08:42:40;;;;;;;29.52;13.43;;;10.80;99.90;;;;;;6303854;28;20052;-80
2024/01/29 08:45:42;;;;;;;28.60;13.45;;;10.90;99.90;;;;;;6297421;28;20048;-83
2024/01/29 08:48:43;;;;;;;27.63;13.23;;;10.90;99.90;;;;;;6295995;28;20075;-81
2024/01/29 08:51:45;;;;;;;26.05;12.68;;;11.00;99.90;;;;;;6296754;28;20130;-80
2024/01/29 08:54:47;;;;;;;30.05;14.25;;;11.00;99.90;;;;;;6295287;28;20114;-80
2024/01/29 08:57:48;;;;;;;26.77;12.85;;;10.90;99.90;;;;;;6295867;28;20045;-82
2024/01/29 09:00:53;;;;;;;30.42;13.20;;;11.00;99.90;;;;;;6293240;28;20263;-82
2024/01/29 09:03:56;;;;;;;26.00;12.38;;;11.30;99.90;;;;;;6272616;28;20053;-87
2024/01/29 09:06:57;;;;;;;24.88;12.23;;;11.10;99.90;;;;;;6298467;28;20486;-84
2024/01/29 09:09:59;;;;;;;26.63;13.68;;;11.00;99.90;;;;;;6302681;28;20059;-86
2024/01/29 09:13:01;;;;;;;26.30;12.55;;;11.10;99.90;;;;;;6308374;28;20078;-85
2024/01/29 09:16:02;;;;;;;27.33;12.48;;;11.50;99.90;;;;;;6304775;28;20056;-89
2024/01/29 09:19:04;;;;;;;29.33;12.65;;;11.10;99.90;;;;;;6302079;28;20046;-85
2024/01/29 09:22:06;;;;;;;25.60;11.35;;;11.60;99.90;;;;;;6296579;28;20052;-82
2024/01/29 09:25:08;;;;;;;24.40;11.82;;;11.20;99.90;;;;;;6292582;28;20061;-79
2024/01/29 09:28:10;;;;;;;25.25;11.32;;;11.10;99.90;;;;;;6291554;28;20045;-81
2024/01/29 09:31:11;;;;;;;23.33;11.63;;;11.10;99.90;;;;;;6297163;28;20048;-83
2024/01/29 09:34:13;;;;;;;24.88;10.80;;;11.20;99.90;;;;;;6301114;28;20044;-81
2024/01/29 09:37:17;;;;;;;23.30;10.85;;;11.20;99.90;;;;;;6298879;28;20488;-83
2024/01/29 09:40:18;;;;;;;24.83;11.65;;;11.20;99.90;;;;;;6295919;28;20055;-81
2024/01/29 09:43:20;;;;;;;20.88;10.30;;;11.30;99.90;;;;;;6300125;28;20052;-86
2024/01/29 09:46:22;;;;;;;19.10;9.25;;;11.40;99.90;;;;;;6301080;28;20056;-83
2024/01/29 09:49:24;;;;;;;18.83;9.38;;;11.30;99.90;;;;;;6302131;28;20494;-82
2024/01/29 09:52:26;;;;;;;19.05;9.10;;;11.50;99.90;;;;;;6309380;28;20040;-87
2024/01/29 09:55:28;;;;;;;18.25;9.63;;;11.60;99.90;;;;;;6301610;28;20109;-87
2024/01/29 09:58:30;;;;;;;17.77;9.38;;;11.60;99.90;;;;;;6300545;28;20068;-86
2024/01/29 10:01:31;;;;;;;17.35;8.95;;;11.70;99.90;;;;;;6303100;28;20063;-90
2024/01/29 10:04:34;;;;;;;17.27;8.55;;;11.70;99.90;;;;;;6299819;28;20051;-86
2024/01/29 10:07:36;;;;;;;18.40;7.85;;;11.90;99.90;;;;;;6296018;28;20118;-85
2024/01/29 10:10:38;;;;;;;16.77;6.50;;;12.10;99.90;;;;;;6295336;28;20048;-90
2024/01/29 10:13:40;;;;;;;15.77;6.55;;;12.10;99.90;;;;;;6296562;28;20048;-82
2024/01/29 10:16:42;;;;;;;37.17;7.50;;;12.30;99.90;;;;;;6297477;28;20059;-84
2024/01/29 10:19:44;;;;;;;12.20;5.75;;;12.30;99.90;;;;;;6298970;28;20044;-86
2024/01/29 10:22:46;;;;;;;13.18;5.90;;;12.70;99.90;;;;;;6302846;28;20052;-90
2024/01/29 10:25:47;;;;;;;12.73;5.68;;;12.60;99.90;;;;;;6299878;28;20419;-82
2024/01/29 10:28:49;;;;;;;13.27;5.50;;;12.80;99.90;;;;;;6299255;28;20053;-89
2024/01/29 10:31:51;;;;;;;14.20;5.35;;;12.80;99.90;;;;;;6299756;28;20052;-90
2024/01/29 10:34:53;;;;;;;11.40;5.72;;;12.80;99.90;;;;;;6299361;28;20414;-89
2024/01/29 10:37:55;;;;;;;16.33;5.55;;;12.90;99.90;;;;;;6298737;28;20136;-85
2024/01/29 10:40:57;;;;;;;11.38;5.80;;;12.80;99.90;;;;;;6297815;28;20052;-85
2024/01/29 10:43:59;;;;;;;16.63;5.80;;;12.80;99.90;;;;;;6295563;28;20045;-83
2024/01/29 10:47:01;;;;;;;11.75;5.68;;;13.00;99.90;;;;;;6301426;28;20510;-86
2024/01/29 10:50:02;;;;;;;15.88;6.05;;;13.10;99.90;;;;;;6297739;28;20056;-87
2024/01/29 10:53:04;;;;;;;13.10;5.88;;;13.10;99.90;;;;;;6299063;28;20502;-87
2024/01/29 10:56:06;;;;;;;25.73;6.80;;;13.00;99.90;;;;;;6298370;28;20048;-85
2024/01/29 10:59:08;;;;;;;17.33;5.65;;;13.20;99.90;;;;;;6296958;28;20111;-85
2024/01/29 11:02:10;;;;;;;12.32;5.40;;;13.10;99.90;;;;;;6299064;28;20044;-86
2024/01/29 11:05:11;;;;;;;13.93;5.35;;;13.30;99.90;;;;;;6289204;28;20135;-88
2024/01/29 11:08:13;;;;;;;10.10;5.10;;;13.30;99.90;;;;;;6300060;28;20119;-91
2024/01/29 11:11:15;;;;;;;12.30;4.97;;;13.30;99.90;;;;;;6299879;28;20110;-87
2024/01/29 11:14:19;;;;;;;11.75;5.03;;;13.40;99.90;;;;;;6301564;28;20044;-82
2024/01/29 11:17:21;;;;;;;13.88;5.47;;;13.60;99.90;;;;;;6298164;28;20056;-84
2024/01/29 11:20:23;;;;;;;11.90;5.57;;;13.60;99.90;;;;;;6311125;28;20045;-84
2024/01/29 11:23:24;;;;;;;12.20;4.72;;;13.80;99.90;;;;;;6293426;28;20048;-84
2024/01/29 11:26:32;;;;;;;10.55;4.70;;;13.80;99.90;;;;;;6298424;28;20056;-84
2024/01/29 11:29:33;;;;;;;11.05;4.93;;;14.00;99.90;;;;;;6296339;28;20423;-88
2024/01/29 11:32:38;;;;;;;14.55;5.82;;;14.30;99.90;;;;;;6296110;28;20090;-84
2024/01/29 11:35:39;;;;;;;12.48;5.40;;;14.60;99.90;;;;;;6298172;28;20078;-85
2024/01/29 11:38:48;;;;;;;15.45;5.53;;;14.50;99.90;;;;;;6288806;28;20162;-88
2024/01/29 11:41:49;;;;;;;12.88;4.95;;;14.80;99.90;;;;;;6304143;28;20050;-84
2024/01/29 11:44:51;;;;;;;14.40;4.95;;;14.80;96.30;;;;;;6295950;28;20062;-86
2024/01/29 11:47:53;;;;;;;10.93;5.03;;;15.10;98.90;;;;;;6296881;28;20059;-86
2024/01/29 11:50:55;;;;;;;9.57;4.50;;;15.40;96.80;;;;;;6299648;28;20153;-87
2024/01/29 11:53:59;;;;;;;11.77;4.80;;;15.50;94.60;;;;;;6297462;28;20062;-85
2024/01/29 11:57:01;;;;;;;15.48;5.55;;;15.10;98.40;;;;;;6315603;28;20044;-90
2024/01/29 12:00:03;;;;;;;10.52;4.60;;;14.90;95.70;;;;;;6304126;28;20060;-84
2024/01/29 12:03:05;;;;;;;12.32;4.70;;;14.90;99.00;;;;;;6306085;28;20056;-84
2024/01/29 12:06:07;;;;;;;10.98;4.80;;;14.50;99.90;;;;;;6304975;28;20074;-85
2024/01/29 12:09:09;;;;;;;15.02;5.40;;;14.50;98.40;;;;;;6308769;28;20056;-89
2024/01/29 12:12:11;;;;;;;12.50;5.13;;;14.00;99.90;;;;;;6307563;28;20079;-89
2024/01/29 12:15:13;;;;;;;12.35;4.65;;;13.60;99.90;;;;;;6306556;28;20055;-87
2024/01/29 12:18:15;;;;;;;13.63;6.32;;;13.30;99.90;;;;;;6310738;28;20048;-87
2024/01/29 12:21:17;;;;;;;16.27;6.35;;;13.20;99.90;;;;;;6306372;28;20045;-86
2024/01/29 12:24:20;;;;;;;16.33;6.25;;;13.10;99.90;;;;;;6307044;28;20476;-86
2024/01/29 12:27:22;;;;;;;12.77;6.28;;;12.70;99.90;;;;;;6304793;28;20480;-82
2024/01/29 12:30:23;;;;;;;14.98;6.70;;;12.50;99.90;;;;;;6298638;28;20054;-83
2024/01/29 12:33:31;;;;;;;12.27;6.35;;;12.40;99.90;;;;;;6276733;28;20068;-83
2024/01/29 12:36:35;;;;;;;;;;;12.40;99.90;;;;;;6298243;28;20105;-83
2024/01/29 12:39:37;;;;;;;13.45;6.55;;;12.40;99.90;;;;;;6297639;28;19924;-84
2024/01/29 12:42:38;;;;;;;15.88;6.85;;;12.50;99.90;;;;;;6296710;28;20228;-82
2024/01/29 12:45:44;;;;;;;12.15;6.13;;;12.50;99.90;;;;;;6292379;28;20135;-83
2024/01/29 12:48:46;;;;;;;12.45;6.43;;;12.60;99.90;;;;;;6294749;28;20048;-84
2024/01/29 12:51:48;;;;;;;13.40;6.40;;;12.60;99.90;;;;;;6294146;28;20490;-83
2024/01/29 12:54:56;;;;;;;12.50;6.70;;;12.70;99.90;;;;;;6296266;28;20404;-84
2024/01/29 12:57:58;;;;;;;13.13;6.53;;;12.80;99.90;;;;;;6273094;28;20086;-82
2024/01/29 13:01:00;;;;;;;13.60;6.30;;;13.00;99.90;;;;;;6295454;28;20059;-83
2024/01/29 13:04:02;;;;;;;13.32;6.57;;;13.00;99.90;;;;;;6294007;28;20396;-82
2024/01/29 13:07:05;;;;;;;10.82;5.57;;;13.00;99.90;;;;;;6295459;28;20047;-84
2024/01/29 13:10:07;;;;;;;15.73;6.10;;;12.80;99.90;;;;;;6309477;28;20056;-83
2024/01/29 13:13:11;;;;;;;11.95;5.78;;;12.70;99.90;;;;;;6292472;28;20055;-83
2024/01/29 13:16:13;;;;;;;14.45;6.20;;;12.70;99.90;;;;;;6294313;28;20563;-83
2024/01/29 13:19:14;;;;;;;14.80;6.18;;;12.70;99.90;;;;;;6293733;28;20411;-83
2024/01/29 13:22:16;;;;;;;16.02;6.07;;;12.70;99.90;;;;;;6294372;28;20147;-83
2024/01/29 13:25:18;;;;;;;12.98;6.22;;;12.60;99.90;;;;;;6292685;28;20048;-81
2024/01/29 13:28:20;;;;;;;10.95;6.40;;;12.50;99.90;;;;;;6292062;28;20056;-82
2024/01/29 13:31:22;;;;;;;11.07;5.95;;;12.40;99.90;;;;;;6295134;28;20061;-82
2024/01/29 13:34:23;;;;;;;12.85;5.93;;;12.40;99.90;;;;;;6295657;28;20052;-82
2024/01/29 13:37:25;;;;;;;12.20;6.25;;;12.50;99.90;;;;;;6295588;28;20073;-83
2024/01/29 13:40:27;;;;;;;11.95;5.55;;;12.60;99.90;;;;;;6293872;28;20075;-82
2024/01/29 13:43:28;;;;;;;11.98;6.28;;;12.70;99.90;;;;;;6293004;28;20065;-84
2024/01/29 13:46:30;;;;;;;11.23;6.10;;;12.80;99.90;;;;;;6300799;28;20057;-86
2024/01/29 13:49:32;;;;;;;12.82;6.47;;;12.80;99.90;;;;;;6302920;28;20063;-90
2024/01/29 13:52:33;;;;;;;12.85;6.82;;;13.10;99.90;;;;;;6303481;28;20048;-87
2024/01/29 13:55:35;;;;;;;13.18;6.88;;;13.10;99.90;;;;;;6299136;28;20502;-90
2024/01/29 13:58:37;;;;;;;13.48;6.65;;;13.20;99.90;;;;;;6299608;28;20055;-89
2024/01/29 14:01:39;;;;;;;13.65;6.97;;;13.20;99.90;;;;;;6303927;28;20044;-90
2024/01/29 14:04:41;;;;;;;13.80;6.53;;;13.30;99.90;;;;;;6301177;28;20048;-92
2024/01/29 14:07:43;;;;;;;12.35;6.47;;;13.50;99.90;;;;;;6302600;28;20079;-87
2024/01/29 14:10:44;;;;;;;12.32;5.78;;;13.70;99.90;;;;;;6301348;28;20148;-86
2024/01/29 14:13:46;;;;;;;17.15;6.13;;;13.80;99.90;;;;;;6298790;28;20052;-88
2024/01/29 14:16:48;;;;;;;13.07;6.40;;;13.70;99.90;;;;;;6300035;28;20127;-86
2024/01/29 14:19:49;;;;;;;14.38;6.93;;;13.50;99.90;;;;;;6302535;28;20048;-86
2024/01/29 14:22:57;;;;;;;13.98;6.85;;;13.30;99.90;;;;;;6296809;28;20063;-86
2024/01/29 14:25:59;;;;;;;15.50;7.35;;;13.10;99.90;;;;;;6304954;28;20040;-85
2024/01/29 14:29:02;;;;;;;13.85;7.82;;;12.80;99.90;;;;;;6305342;28;20061;-90
2024/01/29 14:32:04;;;;;;;17.02;7.45;;;12.70;99.90;;;;;;6308842;28;20068;-89
2024/01/29 14:35:10;;;;;;;14.20;7.88;;;12.70;99.90;;;;;;6307754;28;20052;-83
2024/01/29 14:38:12;;;;;;;17.90;7.68;;;12.70;99.90;;;;;;6303409;28;20063;-86
2024/01/29 14:41:13;;;;;;;19.33;7.95;;;12.60;99.90;;;;;;6303693;28;20140;-87
2024/01/29 14:44:15;;;;;;;16.98;8.98;;;12.50;99.90;;;;;;6302084;28;20135;-85
2024/01/29 14:47:18;;;;;;;15.88;8.52;;;12.30;99.90;;;;;;6307869;28;20080;-86
2024/01/29 14:50:20;;;;;;;15.73;8.05;;;12.30;99.90;;;;;;6303879;28;20049;-88
2024/01/29 14:53:21;;;;;;;18.50;7.68;;;12.30;99.90;;;;;;6304924;28;20068;-83
2024/01/29 14:56:23;;;;;;;17.25;8.93;;;12.30;99.90;;;;;;6306181;28;20108;-84
2024/01/29 14:59:25;;;;;;;16.50;8.48;;;12.30;99.90;;;;;;6302195;28;20047;-84
2024/01/29 15:02:26;;;;;;;17.40;8.13;;;12.20;99.90;;;;;;6306927;28;20059;-86
2024/01/29 15:05:28;;;;;;;16.60;9.02;;;12.20;99.90;;;;;;6306670;28;20059;-86
2024/01/29 15:08:30;;;;;;;20.55;9.85;;;12.10;99.90;;;;;;6303283;28;20059;-90
2024/01/29 15:11:32;;;;;;;20.05;10.82;;;12.10;99.90;;;;;;6302587;28;20052;-86
2024/01/29 15:14:37;;;;;;;20.85;11.52;;;12.00;99.90;;;;;;6297612;28;20039;-84
2024/01/29 15:17:39;;;;;;;23.25;11.85;;;12.00;99.90;;;;;;6299879;28;20581;-85
2024/01/29 15:20:41;;;;;;;24.25;11.60;;;12.00;99.90;;;;;;6298327;28;20053;-84
2024/01/29 15:23:42;;;;;;;20.90;10.65;;;12.00;99.90;;;;;;6295395;28;20527;-84
2024/01/29 15:26:44;;;;;;;21.45;11.25;;;11.90;99.90;;;;;;6297491;28;20048;-81
2024/01/29 15:29:46;;;;;;;22.80;10.88;;;11.80;99.90;;;;;;6296297;28;20490;-89
2024/01/29 15:32:47;;;;;;;20.90;10.82;;;11.80;99.90;;;;;;6305526;28;20055;-86